Time;durP1;ratioP1;P1;durP2;ratioP2;P2;SDS_P1;SDS_P2;PMS_P1;PMS_P2;Temp;Humidity;BMP_temperature;BMP_pressure;BME280_temperature;BME280_humidity;BME280_pressure;Samples;Min_cycle;Max_cycle;Signal;HPM_P1;HPM_P2
2021/10/27 00:00:04;;;;;;;4.32;1.58;;;;;;;20.13;42.81;102073.16;4144897;28;20046;-59
2021/10/27 00:02:06;;;;;;;3.45;1.50;;;;;;;20.25;42.79;102087.66;4143540;28;20050;-66
2021/10/27 00:04:09;;;;;;;3.65;1.55;;;;;;;20.22;42.96;102086.03;4144789;28;20042;-58
2021/10/27 00:06:11;;;;;;;3.40;1.40;;;;;;;20.25;43.01;102091.19;4144709;28;20038;-58
2021/10/27 00:08:14;;;;;;;4.25;1.48;;;;;;;20.22;43.06;102083.34;4144916;28;20064;-58
2021/10/27 00:10:17;;;;;;;2.72;1.30;;;;;;;20.26;43.05;102092.91;4146288;28;20046;-63
2021/10/27 00:12:20;;;;;;;4.10;1.70;;;;;;;20.19;42.91;102086.19;4147659;28;20042;-60
2021/10/27 00:14:22;;;;;;;4.03;1.50;;;;;;;20.26;42.60;102092.06;4148003;28;20042;-61
2021/10/27 00:16:24;;;;;;;3.97;1.48;;;;;;;20.26;43.22;102100.94;4147566;28;20038;-62
2021/10/27 00:18:27;;;;;;;4.20;1.40;;;;;;;20.25;43.01;102098.34;4147801;28;20037;-60
2021/10/27 00:20:29;;;;;;;3.42;1.38;;;;;;;20.21;42.88;102095.00;4147514;28;20486;-58
2021/10/27 00:22:32;;;;;;;4.45;1.40;;;;;;;20.24;42.72;102102.84;4147225;28;20112;-62
2021/10/27 00:24:34;;;;;;;3.88;1.58;;;;;;;20.21;43.06;102099.47;4147427;28;20046;-59
2021/10/27 00:26:36;;;;;;;3.45;1.30;;;;;;;20.15;42.83;102097.16;4147411;28;20092;-61
2021/10/27 00:28:39;;;;;;;4.20;1.35;;;;;;;20.18;42.84;102104.97;4147666;28;20134;-65
2021/10/27 00:30:41;;;;;;;3.60;1.50;;;;;;;20.21;42.93;102113.69;4147805;28;20041;-61
2021/10/27 00:32:44;;;;;;;3.90;1.50;;;;;;;20.08;42.99;102092.09;4147275;28;20046;-61
2021/10/27 00:34:46;;;;;;;3.80;1.40;;;;;;;20.15;42.84;102108.69;4147364;28;20420;-63
2021/10/27 00:36:48;;;;;;;3.78;1.50;;;;;;;20.11;42.85;102099.13;4147209;28;20076;-65
2021/10/27 00:38:51;;;;;;;3.55;1.60;;;;;;;20.18;42.83;102121.00;4147150;28;20049;-63
2021/10/27 00:40:53;;;;;;;4.13;1.58;;;;;;;20.03;43.18;102094.16;4147469;28;20490;-60
2021/10/27 00:42:56;;;;;;;3.85;1.40;;;;;;;20.07;43.08;102097.53;4146985;28;20048;-65
2021/10/27 00:44:58;;;;;;;4.72;1.55;;;;;;;20.06;43.03;102101.16;4147099;28;20070;-59
2021/10/27 00:47:05;;;;;;;4.63;1.48;;;;;;;20.07;43.07;102097.53;4147379;28;20042;-59
2021/10/27 00:49:07;;;;;;;3.05;1.33;;;;;;;20.01;43.07;102095.19;4146038;28;20070;-58
2021/10/27 00:51:09;;;;;;;5.25;1.63;;;;;;;20.09;42.93;102109.88;4147210;28;20053;-62
2021/10/27 00:53:12;;;;;;;3.13;1.40;;;;;;;20.11;42.78;102113.31;4146969;28;20041;-59
2021/10/27 00:55:14;;;;;;;3.35;1.30;;;;;;;20.12;43.02;102111.50;4147108;28;20045;-60
2021/10/27 00:57:20;;;;;;;3.63;1.40;;;;;;;20.08;43.09;102109.94;4147036;28;20042;-65
2021/10/27 00:59:23;;;;;;;3.65;1.25;;;;;;;20.03;42.92;102102.19;4146642;28;20076;-65
2021/10/27 01:01:25;;;;;;;3.47;1.42;;;;;;;20.04;42.91;102108.41;4135580;28;20053;-58
2021/10/27 01:03:28;;;;;;;4.07;1.50;;;;;;;19.92;43.28;102085.88;4155914;28;20057;-65
2021/10/27 01:05:30;;;;;;;3.72;1.35;;;;;;;19.98;43.04;102096.22;4147089;28;20038;-65
2021/10/27 01:07:34;;;;;;;4.75;1.30;;;;;;;20.01;43.04;102103.22;4146988;28;20045;-61
2021/10/27 01:09:37;;;;;;;3.80;1.35;;;;;;;20.01;42.90;102092.53;4146771;28;20054;-62
2021/10/27 01:11:40;;;;;;;3.45;1.40;;;;;;;19.94;43.02;102076.84;4146933;28;20050;-67
2021/10/27 01:13:42;;;;;;;4.05;1.48;;;;;;;20.00;43.26;102086.34;4147292;28;20161;-67
2021/10/27 01:15:45;;;;;;;3.90;1.38;;;;;;;20.04;43.02;102101.25;4146825;28;20458;-59
2021/10/27 01:17:47;;;;;;;4.10;1.17;;;;;;;19.97;43.22;102089.16;4146644;28;20406;-64
2021/10/27 01:19:55;;;;;;;2.80;1.40;;;;;;;20.02;43.36;102094.25;4146125;28;20192;-62
2021/10/27 01:21:58;;;;;;;4.75;1.50;;;;;;;19.99;43.32;102089.06;4145092;28;20061;-67
2021/10/27 01:24:01;;;;;;;3.10;1.13;;;;;;;19.92;43.11;102083.22;4146403;28;20053;-63
2021/10/27 01:26:08;;;;;;;2.83;1.15;;;;;;;19.94;43.00;102084.84;4146774;28;20129;-63
2021/10/27 01:28:10;;;;;;;3.03;1.10;;;;;;;20.01;43.11;102103.22;4146806;28;20406;-61
2021/10/27 01:30:16;;;;;;;3.13;1.25;;;;;;;20.01;43.16;102106.72;4146093;28;20547;-65
2021/10/27 01:32:26;;;;;;;3.38;1.20;;;;;;;20.01;43.11;102108.56;4146543;28;20472;-58
2021/10/27 01:34:28;;;;;;;3.58;1.27;;;;;;;19.91;43.17;102093.00;4146021;28;20038;-58
2021/10/27 01:36:30;;;;;;;3.38;1.25;;;;;;;19.99;43.39;102097.09;4146621;28;20057;-62
2021/10/27 01:38:33;;;;;;;2.58;1.10;;;;;;;19.99;43.44;102097.97;4146519;28;20050;-65
2021/10/27 01:40:36;;;;;;;3.28;1.40;;;;;;;19.95;43.03;102091.03;4146152;28;20060;-60
2021/10/27 01:42:39;;;;;;;3.30;1.40;;;;;;;19.89;43.37;102078.03;4146533;28;20057;-63
2021/10/27 01:44:41;;;;;;;3.08;1.30;;;;;;;19.83;43.55;102070.31;4146238;28;20041;-60
2021/10/27 01:46:48;;;;;;;4.40;1.45;;;;;;;19.90;43.22;102085.97;4146261;28;20046;-60
2021/10/27 01:48:50;;;;;;;3.55;1.20;;;;;;;19.91;43.51;102076.13;4146323;28;20414;-66
2021/10/27 01:50:52;;;;;;;3.50;1.38;;;;;;;19.89;43.06;102078.91;4145871;28;20046;-63
2021/10/27 01:52:54;;;;;;;4.00;1.17;;;;;;;19.93;43.44;102079.59;4146162;28;20046;-66
2021/10/27 01:54:56;;;;;;;5.13;1.50;;;;;;;19.53;43.36;102017.63;4146199;28;20046;-65
2021/10/27 01:56:59;;;;;;;3.63;1.17;;;;;;;19.80;42.99;102060.66;4146014;28;20460;-64
2021/10/27 01:59:01;;;;;;;4.40;1.38;;;;;;;19.91;43.37;102089.50;4146026;28;20136;-65
2021/10/27 02:01:03;;;;;;;3.90;1.20;;;;;;;19.87;43.18;102074.59;4145740;28;20579;-60
2021/10/27 02:03:06;;;;;;;3.92;1.23;;;;;;;19.79;43.15;102056.25;4148661;28;20045;-65
2021/10/27 02:05:08;;;;;;;3.08;1.20;;;;;;;19.83;43.25;102060.50;4145954;28;20046;-64
2021/10/27 02:07:11;;;;;;;3.00;1.20;;;;;;;19.82;43.49;102058.78;4145836;28;20053;-65
2021/10/27 02:09:13;;;;;;;2.55;1.13;;;;;;;19.77;43.15;102052.84;4145941;28;20050;-61
2021/10/27 02:11:15;;;;;;;3.80;1.40;;;;;;;19.69;43.29;102036.34;4145646;28;20041;-64
2021/10/27 02:13:27;;;;;;;3.40;1.27;;;;;;;19.86;43.17;102060.38;4145736;28;20517;-64
2021/10/27 02:15:29;;;;;;;3.53;1.50;;;;;;;19.80;43.11;102053.50;4133709;28;20045;-65
2021/10/27 02:17:31;;;;;;;2.90;1.30;;;;;;;19.54;43.17;102012.19;4145530;28;20617;-65
2021/10/27 02:19:34;;;;;;;3.85;1.30;;;;;;;19.77;43.18;102050.16;4145721;28;20429;-64
2021/10/27 02:21:36;;;;;;;3.55;1.20;;;;;;;19.84;43.08;102061.38;4145379;28;20128;-64
2021/10/27 02:23:39;;;;;;;3.92;1.27;;;;;;;19.53;43.31;102004.28;4145914;28;20053;-65
2021/10/27 02:25:41;;;;;;;3.05;1.10;;;;;;;19.73;43.38;102043.25;4145643;28;20049;-65
2021/10/27 02:27:44;;;;;;;2.22;1.00;;;;;;;19.69;43.48;102042.53;4145502;28;20042;-64
2021/10/27 02:29:46;;;;;;;3.17;1.20;;;;;;;19.79;43.23;102065.16;4145637;28;20046;-65
2021/10/27 02:31:49;;;;;;;2.42;1.08;;;;;;;19.80;43.51;102063.34;4145063;28;20068;-63
2021/10/27 02:33:52;;;;;;;3.50;1.10;;;;;;;19.79;43.44;102073.16;4145035;28;20117;-63
2021/10/27 02:35:55;;;;;;;3.38;1.20;;;;;;;19.79;43.30;102069.59;4145420;28;20048;-64
2021/10/27 02:38:13;;;;;;;2.95;1.30;;;;;;;19.76;43.21;102067.97;4145548;28;20053;-59
2021/10/27 02:40:16;;;;;;;2.38;1.00;;;;;;;19.69;43.30;102053.22;4145615;28;20148;-61
2021/10/27 02:42:18;;;;;;;3.15;1.30;;;;;;;19.73;43.65;102054.81;4145185;28;20061;-60
2021/10/27 02:44:21;;;;;;;3.20;1.27;;;;;;;19.71;43.52;102053.13;4145529;28;20053;-66
2021/10/27 02:46:23;;;;;;;3.38;1.13;;;;;;;19.74;43.53;102058.31;4145334;28;20137;-66
2021/10/27 02:48:26;;;;;;;3.70;1.40;;;;;;;19.61;43.33;102039.41;4145462;28;20038;-65
2021/10/27 02:50:28;;;;;;;4.68;1.10;;;;;;;19.74;43.44;102066.31;4145668;28;20048;-64
2021/10/27 02:52:31;;;;;;;2.67;1.17;;;;;;;19.72;43.51;102057.53;4145150;28;20053;-66
2021/10/27 02:54:34;;;;;;;3.85;1.25;;;;;;;19.72;43.54;102060.19;4145376;28;20042;-65
2021/10/27 02:56:36;;;;;;;2.80;1.02;;;;;;;19.60;43.65;102046.56;4145062;28;20060;-64
2021/10/27 02:58:38;;;;;;;2.67;1.20;;;;;;;19.68;43.50;102055.97;4145010;28;20089;-63
2021/10/27 03:00:41;;;;;;;3.38;1.15;;;;;;;19.50;43.67;102036.44;4145569;28;20096;-65
2021/10/27 03:02:43;;;;;;;3.42;1.20;;;;;;;19.66;43.45;102060.53;4148295;28;20045;-66
2021/10/27 03:04:46;;;;;;;3.65;1.27;;;;;;;19.69;43.46;102066.56;4145506;28;20115;-66
2021/10/27 03:06:48;;;;;;;3.03;1.20;;;;;;;19.62;43.78;102054.50;4145562;28;20045;-66
2021/10/27 03:08:51;;;;;;;3.95;1.23;;;;;;;19.67;43.60;102068.44;4145004;28;20108;-65
2021/10/27 03:10:53;;;;;;;2.90;1.58;;;;;;;19.63;43.78;102059.72;4145210;28;20108;-66
2021/10/27 03:12:55;;;;;;;4.45;1.23;;;;;;;19.64;43.51;102066.81;4145785;28;20532;-65
2021/10/27 03:14:57;;;;;;;2.60;1.00;;;;;;;19.66;43.58;102065.88;4152707;28;20042;-66
2021/10/27 03:16:59;;;;;;;;;;;;;;;19.63;43.63;102061.56;4145539;28;20449;-66
2021/10/27 03:19:02;;;;;;;2.47;1.08;;;;;;;19.53;43.55;102036.31;4145050;28;19933;-65
2021/10/27 03:21:04;;;;;;;;;;;;;;;19.60;43.83;102046.56;4138826;28;20394;-65
2021/10/27 03:23:06;;;;;;;3.28;1.20;;;;;;;19.43;43.74;102018.09;4144794;28;19921;-62
2021/10/27 03:25:08;;;;;;;2.72;1.20;;;;;;;19.51;43.78;102025.69;4145187;28;20057;-64
2021/10/27 03:27:11;;;;;;;3.35;1.20;;;;;;;19.57;43.63;102033.38;4145184;28;20121;-63
2021/10/27 03:29:13;;;;;;;3.55;1.30;;;;;;;19.37;43.65;102004.22;4144943;28;20046;-64
2021/10/27 03:31:15;;;;;;;2.78;1.15;;;;;;;19.43;43.69;102012.75;4144944;28;20046;-66
2021/10/27 03:33:17;;;;;;;3.45;1.33;;;;;;;19.44;43.46;102014.50;4144780;28;20100;-65
2021/10/27 03:35:19;;;;;;;;;;;;;;;19.56;43.79;102039.69;4145457;28;20116;-66
2021/10/27 03:37:22;;;;;;;2.55;1.10;;;;;;;19.54;43.82;102040.69;4144989;28;20028;-66
2021/10/27 03:39:24;;;;;;;4.43;1.30;;;;;;;19.55;43.62;102043.28;4144794;28;20058;-67
2021/10/27 03:41:26;;;;;;;4.22;1.42;;;;;;;19.47;43.74;102027.66;4144918;28;20042;-67
2021/10/27 03:43:28;;;;;;;2.75;1.20;;;;;;;19.53;43.81;102037.16;4145158;28;20050;-66
2021/10/27 03:45:31;;;;;;;4.65;1.50;;;;;;;19.54;43.65;102041.56;4148236;28;20038;-67
2021/10/27 03:47:34;;;;;;;3.65;1.15;;;;;;;19.54;44.00;102046.00;4148151;28;20046;-61
2021/10/27 03:49:36;;;;;;;2.78;1.17;;;;;;;19.39;43.98;102018.34;4148078;28;20052;-60
2021/10/27 03:51:38;;;;;;;4.00;1.10;;;;;;;19.53;43.84;102047.84;4148090;28;20041;-64
2021/10/27 03:53:41;;;;;;;3.28;1.25;;;;;;;19.51;43.54;102047.03;4148047;28;20038;-61
2021/10/27 03:55:43;;;;;;;2.28;1.00;;;;;;;19.51;43.75;102040.84;4147828;28;20048;-64
2021/10/27 03:57:46;;;;;;;4.60;1.40;;;;;;;19.40;43.84;102025.41;4146642;28;20132;-61
2021/10/27 03:59:48;;;;;;;4.82;1.38;;;;;;;19.21;44.06;102005.03;4147547;28;20399;-62
2021/10/27 04:01:50;;;;;;;3.53;1.40;;;;;;;19.29;43.78;102018.81;4153671;28;20045;-65
2021/10/27 04:03:52;;;;;;;4.43;1.25;;;;;;;19.42;43.67;102035.03;4161957;28;20046;-63
2021/10/27 04:05:55;;;;;;;3.05;1.20;;;;;;;19.22;43.87;102003.22;4148077;28;20111;-64
2021/10/27 04:07:57;;;;;;;3.05;1.15;;;;;;;19.39;43.82;102026.34;4148095;28;20049;-64
2021/10/27 04:10:00;;;;;;;3.05;1.27;;;;;;;19.35;43.78;102022.97;4147967;28;20481;-61
2021/10/27 04:12:02;;;;;;;3.58;1.25;;;;;;;19.31;44.00;102016.06;4148013;28;20046;-61
2021/10/27 04:14:05;;;;;;;3.42;1.10;;;;;;;19.42;43.68;102035.03;4156926;28;20037;-61
2021/10/27 04:16:07;;;;;;;3.45;1.20;;;;;;;19.30;43.81;102015.19;4147862;28;20046;-62
2021/10/27 04:18:10;;;;;;;3.83;1.23;;;;;;;19.23;43.74;102011.13;4147827;28;20057;-61
2021/10/27 04:20:12;;;;;;;3.67;1.02;;;;;;;19.41;43.90;102037.81;4147434;28;20552;-66
2021/10/27 04:22:14;;;;;;;3.40;1.10;;;;;;;19.33;43.82;102029.31;4147743;28;20095;-66
2021/10/27 04:24:17;;;;;;;3.15;1.15;;;;;;;19.33;43.83;102030.19;4147923;28;20050;-65
2021/10/27 04:26:19;;;;;;;2.92;1.25;;;;;;;19.38;43.82;102041.50;4147357;28;20049;-64
2021/10/27 04:28:21;;;;;;;4.00;1.42;;;;;;;19.36;43.93;102042.53;4147651;28;20096;-62
2021/10/27 04:30:23;;;;;;;3.15;1.30;;;;;;;19.22;43.75;102017.41;4147676;28;20052;-64
2021/10/27 04:32:26;;;;;;;4.68;1.70;;;;;;;19.29;43.90;102031.28;4147514;28;20490;-59
2021/10/27 04:34:28;;;;;;;3.33;1.30;;;;;;;19.41;43.81;102059.16;4147642;28;20058;-61
2021/10/27 04:36:31;;;;;;;3.60;1.50;;;;;;;19.34;43.78;102049.72;4147409;28;20053;-65
2021/10/27 04:38:33;;;;;;;3.88;1.27;;;;;;;19.39;43.81;102061.03;4147601;28;20052;-66
2021/10/27 04:40:36;;;;;;;3.75;1.50;;;;;;;19.36;44.08;102058.53;4147292;28;20490;-61
2021/10/27 04:42:38;;;;;;;4.47;1.52;;;;;;;19.38;43.87;102061.97;4147548;28;20049;-63
2021/10/27 04:44:41;;;;;;;4.15;1.67;;;;;;;19.37;43.74;102062.91;4147598;28;20054;-64
2021/10/27 04:46:43;;;;;;;3.15;1.38;;;;;;;19.30;43.72;102057.03;4147127;28;20045;-61
2021/10/27 04:48:45;;;;;;;4.57;1.63;;;;;;;19.34;43.76;102055.06;4147430;28;20046;-63
2021/10/27 04:50:48;;;;;;;4.32;1.70;;;;;;;19.35;44.12;102062.97;4147252;28;20053;-63
2021/10/27 04:52:50;;;;;;;3.40;1.50;;;;;;;19.31;44.02;102062.28;4147447;28;20050;-62
2021/10/27 04:54:52;;;;;;;5.05;1.55;;;;;;;19.30;44.02;102060.53;4147198;28;20053;-60
2021/10/27 04:56:54;;;;;;;5.03;2.00;;;;;;;19.09;43.98;102022.50;4146630;28;20050;-64
2021/10/27 04:58:56;;;;;;;3.70;1.52;;;;;;;19.27;43.92;102052.72;4147142;28;20547;-61
2021/10/27 05:00:58;;;;;;;;;;;;;;;19.29;44.47;102056.16;4147682;28;20107;-64
2021/10/27 05:03:01;;;;;;;4.18;1.70;;;;;;;19.20;44.06;102045.09;4147521;28;20401;-65
2021/10/27 05:05:04;;;;;;;3.55;1.70;;;;;;;19.19;44.32;102049.56;4147471;28;20046;-65
2021/10/27 05:07:09;;;;;;;4.55;1.75;;;;;;;19.22;43.83;102051.22;4146954;28;20045;-65
2021/10/27 05:09:11;;;;;;;4.18;1.90;;;;;;;19.10;44.06;102036.69;4147258;28;20121;-63
2021/10/27 05:11:13;;;;;;;;;;;;;;;19.26;44.25;102055.44;4147489;28;20077;-61
2021/10/27 05:13:15;;;;;;;4.55;2.00;;;;;;;19.18;44.02;102042.50;4147132;28;20363;-61
2021/10/27 05:15:17;;;;;;;4.32;2.00;;;;;;;19.24;44.17;102052.84;4147074;28;20515;-64
2021/10/27 05:17:19;;;;;;;5.85;2.00;;;;;;;19.07;44.19;102024.38;4146883;28;20050;-64
2021/10/27 05:19:22;;;;;;;4.65;1.80;;;;;;;19.10;43.97;102026.91;4146838;28;20054;-64
2021/10/27 05:21:24;;;;;;;4.45;1.90;;;;;;;19.22;44.11;102053.88;4146679;28;20045;-61
2021/10/27 05:23:26;;;;;;;4.20;1.92;;;;;;;19.24;44.24;102054.69;4143405;28;20144;-63
2021/10/27 05:25:28;;;;;;;;;;;;;;;19.21;44.40;102062.81;4147291;28;20054;-60
2021/10/27 05:27:31;;;;;;;5.72;2.20;;;;;;;19.14;43.97;102044.47;4146456;28;19928;-61
2021/10/27 05:29:33;;;;;;;4.28;2.03;;;;;;;19.20;44.26;102059.31;4146778;28;20061;-61
2021/10/27 05:31:35;;;;;;;4.63;1.83;;;;;;;19.07;44.13;102036.88;4147214;28;20041;-59
2021/10/27 05:33:38;;;;;;;4.32;1.90;;;;;;;19.20;44.07;102050.41;4145655;28;20069;-63
2021/10/27 05:35:41;;;;;;;5.05;1.70;;;;;;;19.09;44.14;102032.28;4146785;28;20066;-58
2021/10/27 05:37:44;;;;;;;5.07;1.95;;;;;;;19.10;43.89;102040.25;4146387;28;20049;-57
2021/10/27 05:39:46;;;;;;;6.07;1.90;;;;;;;19.19;44.04;102048.69;4146740;28;20073;-61
2021/10/27 05:41:49;;;;;;;4.95;1.90;;;;;;;19.18;44.00;102044.31;4147101;28;20049;-61
2021/10/27 05:43:51;;;;;;;4.95;2.20;;;;;;;19.14;44.13;102043.63;4146318;28;20045;-61
2021/10/27 05:45:56;;;;;;;4.22;2.08;;;;;;;19.07;44.14;102031.53;4146516;28;20045;-61
2021/10/27 05:48:00;;;;;;;4.45;2.20;;;;;;;19.17;44.13;102051.44;4146141;28;20494;-64
2021/10/27 05:50:23;;;;;;;5.78;2.33;;;;;;;19.16;44.15;102055.03;4146554;28;20062;-66
2021/10/27 05:56:49;;;;;;;4.78;2.25;;;;;;;19.03;44.11;102028.16;4146490;28;20054;-65
2021/10/27 05:58:51;;;;;;;4.38;1.92;;;;;;;19.11;44.13;102044.63;4145832;28;20069;-62
2021/10/27 06:00:53;;;;;;;5.25;2.00;;;;;;;19.06;43.78;102029.81;4146212;28;20078;-58
2021/10/27 06:02:56;;;;;;;4.97;2.10;;;;;;;18.96;44.00;102016.06;4157692;28;20042;-62
2021/10/27 06:04:58;;;;;;;4.13;2.20;;;;;;;19.09;44.24;102041.19;4156118;28;20042;-61
2021/10/27 06:07:01;;;;;;;4.30;1.80;;;;;;;19.11;44.01;102049.09;4145642;28;20042;-60
2021/10/27 06:09:03;;;;;;;5.35;2.22;;;;;;;18.97;44.01;102026.66;4145950;28;20038;-63
2021/10/27 06:11:09;;;;;;;5.28;2.17;;;;;;;19.09;44.04;102050.97;4146273;28;20061;-60
2021/10/27 06:13:14;;;;;;;4.63;2.25;;;;;;;18.84;44.18;102013.03;4146193;28;20056;-63
2021/10/27 06:15:19;;;;;;;4.55;2.20;;;;;;;19.08;44.26;102051.94;4146788;28;20049;-60
2021/10/27 06:17:22;;;;;;;3.88;2.00;;;;;;;18.78;44.30;101999.16;4146354;28;20042;-64
2021/10/27 06:19:24;;;;;;;5.65;2.33;;;;;;;18.82;44.21;102011.38;4145648;28;20097;-64
2021/10/27 06:21:27;;;;;;;5.03;2.03;;;;;;;19.06;44.07;102043.13;4144757;28;20091;-64
2021/10/27 06:23:32;;;;;;;4.47;2.13;;;;;;;18.93;44.03;102019.75;4145948;28;20049;-62
2021/10/27 06:25:34;;;;;;;4.88;2.03;;;;;;;18.95;43.90;102027.66;4146008;28;20073;-64
2021/10/27 06:27:38;;;;;;;4.97;1.90;;;;;;;18.96;44.25;102032.06;4146046;28;20060;-61
2021/10/27 06:29:48;;;;;;;4.30;2.05;;;;;;;18.93;44.07;102024.22;4145791;28;20049;-63
2021/10/27 06:31:58;;;;;;;4.88;2.17;;;;;;;19.00;44.07;102041.63;4145939;28;20053;-58
2021/10/27 06:36:12;;;;;;;4.60;2.08;;;;;;;19.02;44.28;102036.22;4145766;28;20045;-61
2021/10/27 06:38:25;;;;;;;4.30;2.20;;;;;;;18.99;44.06;102043.44;4145778;28;20045;-58
2021/10/27 06:47:30;;;;;;;5.22;2.15;;;;;;;18.91;44.34;102056.28;4145474;28;20045;-62
2021/10/27 06:49:33;;;;;;;5.10;2.20;;;;;;;18.97;44.41;102068.47;4145451;28;20041;-65
2021/10/27 06:51:38;;;;;;;5.13;2.00;;;;;;;18.92;43.94;102065.13;4145548;28;20066;-59
2021/10/27 06:53:42;;;;;;;5.18;2.40;;;;;;;18.68;44.11;102018.25;4145803;28;20499;-59
2021/10/27 06:55:44;;;;;;;6.30;2.28;;;;;;;18.91;44.32;102060.72;4145408;28;20049;-59
2021/10/27 06:57:46;;;;;;;5.90;2.47;;;;;;;18.88;44.37;102053.72;4145537;28;20601;-57
2021/10/27 06:59:50;;;;;;;6.45;2.67;;;;;;;18.95;44.28;102065.00;4144992;28;20177;-63
2021/10/27 07:06:40;;;;;;;6.50;2.45;;;;;;;18.90;44.32;102067.84;4145107;28;20544;-65
2021/10/27 07:17:30;;;;;;;;;;;;;;;18.88;44.50;102098.19;4145933;28;20544;-63
2021/10/27 07:19:32;;;;;;;5.90;2.60;;;;;;;18.60;44.34;102060.41;4145060;28;20385;-60
2021/10/27 07:21:34;;;;;;;6.53;2.60;;;;;;;18.86;44.14;102103.59;4145132;28;20037;-57
2021/10/27 07:23:39;;;;;;;6.13;2.63;;;;;;;18.84;44.39;102100.16;4144184;28;20058;-58
2021/10/27 07:25:41;;;;;;;5.65;2.78;;;;;;;18.77;44.37;102083.59;4145496;28;20107;-61
2021/10/27 07:27:44;;;;;;;;;;;;;;;18.86;44.85;102105.38;4145801;28;20475;-62
2021/10/27 07:29:47;;;;;;;7.03;2.83;;;;;;;18.73;44.38;102083.81;4145376;28;19928;-61
2021/10/27 07:31:50;;;;;;;6.50;2.60;;;;;;;18.78;44.29;102095.97;4145045;28;20378;-58
2021/10/27 07:33:56;;;;;;;5.85;2.95;;;;;;;18.75;44.21;102085.47;4145358;28;20057;-63
2021/10/27 07:40:43;;;;;;;5.05;2.47;;;;;;;18.76;44.36;102102.31;4145430;28;20042;-58
2021/10/27 07:42:45;;;;;;;5.10;2.50;;;;;;;18.83;44.16;102115.28;4145135;28;20510;-57
2021/10/27 07:44:48;;;;;;;;;;;;;;;18.82;44.36;102115.34;4144617;28;20120;-62
2021/10/27 07:46:51;;;;;;;6.45;2.78;;;;;;;18.76;44.08;102124.50;4145183;28;20613;-57
2021/10/27 07:48:53;;;;;;;5.50;2.70;;;;;;;18.81;44.48;102121.59;4145135;28;20052;-64
2021/10/27 07:50:58;;;;;;;5.57;2.78;;;;;;;18.82;44.01;102128.66;4145456;28;20050;-57
2021/10/27 07:53:02;;;;;;;6.10;3.08;;;;;;;18.81;44.25;102127.81;4144886;28;20049;-57
2021/10/27 07:55:04;;;;;;;6.18;3.05;;;;;;;18.81;44.24;102127.81;4145110;28;20510;-59
2021/10/27 07:57:07;;;;;;;5.90;2.97;;;;;;;18.59;44.26;102084.47;4145053;28;20042;-61
2021/10/27 07:59:11;;;;;;;7.53;3.25;;;;;;;18.78;44.21;102117.28;4144927;28;20054;-63
2021/10/27 08:01:13;;;;;;;5.95;3.05;;;;;;;18.73;44.22;102115.78;4145850;28;20517;-62
2021/10/27 08:03:15;;;;;;;7.75;3.08;;;;;;;18.68;44.14;102106.19;4147105;28;20576;-61
2021/10/27 08:05:18;;;;;;;6.03;3.00;;;;;;;18.80;44.24;102134.06;4145288;28;20057;-58
2021/10/27 08:07:21;;;;;;;6.90;3.08;;;;;;;18.79;44.12;102131.50;4145119;28;20092;-63
2021/10/27 08:09:23;;;;;;;6.18;3.22;;;;;;;18.77;44.37;102133.34;4128986;28;20499;-62
2021/10/27 08:11:25;;;;;;;;;;;;;;;18.78;44.54;102138.59;4129425;28;20565;-61
2021/10/27 08:13:27;;;;;;;6.85;3.30;;;;;;;18.71;44.20;102126.50;4141025;28;20344;-60
2021/10/27 08:15:30;;;;;;;;;;;;;;;18.78;44.55;102137.75;4145494;28;20645;-58
2021/10/27 08:17:32;;;;;;;5.82;2.97;;;;;;;18.71;44.04;102128.31;4144926;28;20514;-61
2021/10/27 08:19:35;;;;;;;7.47;3.28;;;;;;;18.67;44.12;102116.94;4144793;28;20041;-59
2021/10/27 08:21:38;;;;;;;7.25;3.30;;;;;;;18.78;44.16;102130.59;4144881;28;20042;-60
2021/10/27 08:23:42;;;;;;;6.82;3.17;;;;;;;18.79;44.04;102123.50;4144667;28;20054;-65
2021/10/27 08:25:49;;;;;;;5.93;3.22;;;;;;;18.71;43.92;102104.34;4144869;28;20137;-62
2021/10/27 08:27:52;;;;;;;7.05;3.22;;;;;;;18.76;44.56;102116.50;4144834;28;20537;-64
2021/10/27 08:29:54;;;;;;;7.55;3.25;;;;;;;18.80;44.03;102114.56;4144837;28;20607;-57
2021/10/27 08:31:59;;;;;;;7.80;3.10;;;;;;;18.79;44.42;102119.00;4147421;28;20045;-63
2021/10/27 08:36:03;;;;;;;;;;;;;;;18.79;44.38;102118.16;4148060;28;20046;-58
2021/10/27 08:38:05;;;;;;;6.45;3.50;;;;;;;18.60;44.29;102087.03;4147509;28;19937;-58
2021/10/27 08:40:08;;;;;;;6.57;3.30;;;;;;;18.71;44.40;102102.53;4147424;28;20042;-58
2021/10/27 08:42:12;;;;;;;6.63;3.17;;;;;;;18.79;44.10;102113.69;4147642;28;20489;-63
2021/10/27 08:44:14;;;;;;;8.07;3.65;;;;;;;18.79;44.06;102113.69;4147452;28;20429;-62
2021/10/27 08:46:17;;;;;;;;;;;;;;;18.77;44.39;102115.59;4147912;28;20072;-59
2021/10/27 08:48:19;;;;;;;;;;;;;;;18.75;44.77;102116.56;4147456;28;19929;-56
2021/10/27 08:50:24;;;;;;;6.68;3.00;;;;;;;18.72;44.43;102112.25;4147463;28;19921;-61
2021/10/27 08:52:26;;;;;;;8.20;3.72;;;;;;;18.76;44.05;102126.28;4147708;28;20045;-60
2021/10/27 08:54:29;;;;;;;6.97;3.63;;;;;;;18.61;44.14;102096.78;4146957;28;20038;-63
2021/10/27 08:56:32;;;;;;;7.60;3.38;;;;;;;18.64;43.90;102098.41;4147173;28;20412;-59
2021/10/27 08:58:46;;;;;;;7.28;3.35;;;;;;;18.70;43.96;102099.94;4146788;28;20058;-63
2021/10/27 09:01:08;;;;;;;7.32;3.70;;;;;;;18.68;44.31;102100.03;4147042;28;20046;-59
2021/10/27 09:07:47;;;;;;;7.75;3.72;;;;;;;18.76;44.21;102105.84;4147208;28;20120;-62
2021/10/27 09:33:31;;;;;;;7.07;3.30;;;;;;;18.80;43.97;102107.41;4147224;28;20042;-60
2021/10/27 09:34:11;;;;;;;6.18;3.00;;;;;;;18.58;44.17;102078.28;4146984;28;20050;-64
2021/10/27 09:37:29;;;;;;;6.95;3.10;;;;;;;18.79;44.22;102110.16;4142486;28;20518;-62
2021/10/27 09:39:27;;;;;;;5.30;2.85;;;;;;;18.57;44.34;102076.56;4133830;28;20554;-62
2021/10/27 09:44:03;;;;;;;8.55;3.53;;;;;;;18.77;44.45;102104.03;4146769;28;20050;-64
2021/10/27 10:05:01;;;;;;;8.00;3.88;;;;;;;18.77;44.42;102099.59;4146498;28;20048;-56
2021/10/27 10:07:06;;;;;;;8.88;4.68;;;;;;;18.75;44.38;102095.25;4145003;28;20050;-57
2021/10/27 10:09:09;;;;;;;12.98;6.65;;;;;;;18.82;44.92;102102.00;4145539;28;20038;-54
2021/10/27 10:11:14;;;;;;;10.13;5.80;;;;;;;18.84;44.82;102102.81;4145503;28;20042;-55
2021/10/27 10:13:18;;;;;;;9.68;6.70;;;;;;;18.84;44.81;102097.47;4145706;28;20090;-55
2021/10/27 10:15:37;;;;;;;12.13;6.20;;;;;;;18.89;44.82;102108.78;4144585;28;20481;-58
2021/10/27 10:17:41;;;;;;;11.77;7.05;;;;;;;18.89;44.44;102111.44;4144468;28;20049;-61
2021/10/27 10:19:44;;;;;;;13.70;7.65;;;;;;;18.82;44.80;102097.56;4144819;28;20048;-59
2021/10/27 10:21:48;;;;;;;11.98;8.00;;;;;;;18.92;44.50;102106.00;4145754;28;20050;-61
2021/10/27 10:24:22;;;;;;;11.90;8.10;;;;;;;18.95;44.59;102104.97;4160988;28;20081;-61
2021/10/27 10:26:33;;;;;;;13.18;8.65;;;;;;;18.93;44.84;102113.06;4145737;28;20112;-62
2021/10/27 10:28:42;;;;;;;12.88;8.40;;;;;;;18.93;45.00;102109.53;4142212;28;20512;-64
2021/10/27 10:30:58;;;;;;;15.20;8.35;;;;;;;18.95;44.86;102113.84;4146044;28;20426;-62
2021/10/27 10:33:06;;;;;;;13.10;8.52;;;;;;;18.83;44.85;102091.28;4145839;28;20049;-57
2021/10/27 10:35:10;;;;;;;11.95;9.00;;;;;;;18.95;44.49;102115.66;4161292;28;20049;-54
2021/10/27 10:38:07;;;;;;;18.27;9.88;;;;;;;18.97;44.99;102117.31;4146001;28;20038;-60
2021/10/27 10:40:32;;;;;;;12.15;8.25;;;;;;;18.96;44.93;102120.91;4140374;28;20470;-56
2021/10/27 10:43:15;;;;;;;12.32;8.45;;;;;;;18.83;44.71;102101.97;4146050;28;20048;-60
2021/10/27 11:02:38;;;;;;;12.15;8.02;;;;;;;18.88;45.32;102091.03;4149169;28;20041;-58
2021/10/27 11:24:14;;;;;;;12.63;9.18;;;;;;;18.85;44.58;102072.56;4136393;28;20041;-54
2021/10/27 11:38:37;;;;;;;12.00;7.40;;;;;;;18.62;45.04;102015.06;4129573;28;19928;-60
2021/10/27 11:40:43;;;;;;;13.23;7.93;;;;;;;18.86;45.51;102052.06;4142848;28;20046;-54
2021/10/27 11:44:57;;;;;;;12.10;7.53;;;;;;;18.71;45.35;102027.06;4145565;28;20075;-58
2021/10/27 11:47:08;;;;;;;11.10;7.15;;;;;;;18.75;45.17;102026.84;4145897;28;20050;-56
2021/10/27 11:49:11;;;;;;;10.50;6.07;;;;;;;18.68;45.24;102020.06;4144207;28;20044;-54
2021/10/27 11:51:15;;;;;;;10.00;5.82;;;;;;;18.83;45.29;102047.75;4144515;28;20042;-65